Time;durP1;ratioP1;P1;durP2;ratioP2;P2;SDS_P1;SDS_P2;PMS_P1;PMS_P2;Temp;Humidity;BMP_temperature;BMP_pressure;BME280_temperature;BME280_humidity;BME280_pressure;Samples;Min_cycle;Max_cycle;Signal;HPM_P1;HPM_P2
2021/09/03 00:02:21;;;;;;;8.73;7.05;;;26.50;44.60;;;;;;5071577;28;20024;-46
2021/09/03 00:04:46;;;;;;;8.63;7.38;;;26.50;44.60;;;;;;5070635;28;20052;-47
2021/09/03 00:07:12;;;;;;;11.07;7.72;;;26.50;44.60;;;;;;5070720;28;20028;-51
2021/09/03 00:09:38;;;;;;;10.93;7.70;;;26.40;44.50;;;;;;5070844;28;20138;-47
2021/09/03 00:12:06;;;;;;;8.68;7.25;;;26.40;44.50;;;;;;5071581;28;20025;-47
2021/09/03 00:14:33;;;;;;;9.52;7.55;;;26.40;44.50;;;;;;5070772;28;20090;-47
2021/09/03 00:16:59;;;;;;;9.55;7.50;;;26.40;44.50;;;;;;5053420;28;20040;-51
2021/09/03 00:19:25;;;;;;;7.68;6.72;;;26.40;44.50;;;;;;5071254;28;20032;-47
2021/09/03 00:21:52;;;;;;;9.13;7.13;;;26.40;44.50;;;;;;5052950;28;20027;-49
2021/09/03 00:24:19;;;;;;;8.95;7.28;;;26.40;44.50;;;;;;5071769;28;20048;-48
2021/09/03 00:26:44;;;;;;;9.55;7.50;;;26.40;44.50;;;;;;5071024;28;20028;-50
2021/09/03 00:29:10;;;;;;;9.73;7.90;;;26.40;44.50;;;;;;5053767;28;20043;-51
2021/09/03 00:31:36;;;;;;;12.02;8.23;;;26.40;44.50;;;;;;5071528;28;20023;-49
2021/09/03 00:34:02;;;;;;;10.32;8.02;;;26.40;44.50;;;;;;5071447;28;20465;-49
2021/09/03 00:36:27;;;;;;;10.10;8.25;;;26.40;44.50;;;;;;5071418;28;20020;-48
2021/09/03 00:38:53;;;;;;;11.27;8.00;;;26.40;44.50;;;;;;5071150;28;20032;-49
2021/09/03 00:41:19;;;;;;;13.82;8.05;;;26.40;44.40;;;;;;5071463;28;20461;-49
2021/09/03 00:43:46;;;;;;;11.20;7.78;;;26.40;44.40;;;;;;5071248;28;20021;-50
2021/09/03 00:46:11;;;;;;;10.73;7.70;;;26.40;44.40;;;;;;5071245;28;20031;-52
2021/09/03 00:48:37;;;;;;;10.13;7.25;;;26.40;44.40;;;;;;5070058;28;20029;-49
2021/09/03 00:51:03;;;;;;;11.60;7.88;;;26.40;44.40;;;;;;5071305;28;20024;-53
2021/09/03 00:53:30;;;;;;;8.73;7.07;;;26.40;44.30;;;;;;5070943;28;20029;-47
2021/09/03 00:55:57;;;;;;;11.40;7.82;;;26.40;44.30;;;;;;5036204;28;20085;-48
2021/09/03 00:58:22;;;;;;;9.35;7.30;;;26.40;44.30;;;;;;5071358;28;20394;-52
2021/09/03 01:00:49;;;;;;;9.32;7.22;;;26.40;44.40;;;;;;5070412;28;20024;-52
2021/09/03 01:03:15;;;;;;;11.40;7.20;;;26.40;44.40;;;;;;5053204;28;20029;-50
2021/09/03 01:05:41;;;;;;;9.07;7.10;;;26.40;44.40;;;;;;5052811;28;20024;-52
2021/09/03 01:08:06;;;;;;;9.25;7.05;;;26.40;44.40;;;;;;5053368;28;20025;-51
2021/09/03 01:10:34;;;;;;;9.20;7.43;;;26.40;44.30;;;;;;5052934;28;20035;-50
2021/09/03 01:12:59;;;;;;;9.00;6.72;;;26.40;44.30;;;;;;5036564;28;20032;-49
2021/09/03 01:15:25;;;;;;;10.45;7.45;;;26.40;44.30;;;;;;5070839;28;20033;-50
2021/09/03 01:17:51;;;;;;;9.13;7.50;;;26.40;44.30;;;;;;5070464;28;20263;-48
2021/09/03 01:20:17;;;;;;;8.10;6.85;;;26.40;44.30;;;;;;5070722;28;20025;-49
2021/09/03 01:22:43;;;;;;;10.25;6.88;;;26.40;44.30;;;;;;5052630;28;20423;-49
2021/09/03 01:25:09;;;;;;;8.73;7.10;;;26.40;44.40;;;;;;5070598;28;20037;-47
2021/09/03 01:27:35;;;;;;;10.43;6.72;;;26.40;44.30;;;;;;5070720;28;20379;-48
2021/09/03 01:30:01;;;;;;;10.02;6.32;;;26.40;44.30;;;;;;5052799;28;20024;-49
2021/09/03 01:32:26;;;;;;;8.05;6.43;;;26.40;44.30;;;;;;5070981;28;20017;-52
2021/09/03 01:34:52;;;;;;;9.00;6.60;;;26.40;44.30;;;;;;5052411;28;20028;-49
2021/09/03 01:37:18;;;;;;;7.82;6.57;;;26.40;44.30;;;;;;5070721;28;20470;-47
2021/09/03 01:39:43;;;;;;;7.70;6.38;;;26.40;44.30;;;;;;5070436;28;20033;-49
2021/09/03 01:42:09;;;;;;;7.40;6.38;;;26.40;44.30;;;;;;5052947;28;20031;-53
2021/09/03 01:44:35;;;;;;;8.85;6.40;;;26.40;44.30;;;;;;5070333;28;20389;-50
2021/09/03 01:47:00;;;;;;;8.07;6.38;;;26.40;44.20;;;;;;5052966;28;20043;-54
2021/09/03 01:49:26;;;;;;;7.28;5.95;;;26.40;44.20;;;;;;5070821;28;20024;-51
2021/09/03 01:51:51;;;;;;;7.50;6.32;;;26.40;44.20;;;;;;5052508;28;20076;-51
2021/09/03 01:54:17;;;;;;;8.18;6.47;;;26.40;44.20;;;;;;5071301;28;20074;-50
2021/09/03 01:56:43;;;;;;;8.10;5.75;;;26.40;44.20;;;;;;5052423;28;20120;-51
2021/09/03 01:59:09;;;;;;;7.55;5.80;;;26.40;44.20;;;;;;5053051;28;20378;-53
2021/09/03 02:01:35;;;;;;;7.47;6.18;;;26.40;44.30;;;;;;5071517;28;20075;-51
2021/09/03 02:04:01;;;;;;;7.00;6.03;;;26.40;44.20;;;;;;5073738;28;20024;-53
2021/09/03 02:06:26;;;;;;;9.85;5.97;;;26.40;44.20;;;;;;5073244;28;20115;-49
2021/09/03 02:08:52;;;;;;;7.32;6.30;;;26.40;44.20;;;;;;5055140;28;20059;-48
2021/09/03 02:11:18;;;;;;;7.40;6.00;;;26.40;44.20;;;;;;5073665;28;20021;-52
2021/09/03 02:13:45;;;;;;;6.50;5.38;;;26.40;44.20;;;;;;5072820;28;20020;-53
2021/09/03 02:16:11;;;;;;;8.68;5.80;;;26.40;44.20;;;;;;5055411;28;20119;-54
2021/09/03 02:18:36;;;;;;;8.05;5.93;;;26.40;44.20;;;;;;5072167;28;20104;-48
2021/09/03 02:21:02;;;;;;;6.75;5.90;;;26.40;44.20;;;;;;5073155;28;20596;-51
2021/09/03 02:23:28;;;;;;;9.40;6.07;;;26.40;44.20;;;;;;5072951;28;20057;-51
2021/09/03 02:25:54;;;;;;;8.82;7.22;;;26.40;44.10;;;;;;5073173;28;20484;-52
2021/09/03 02:28:20;;;;;;;8.32;7.07;;;26.40;44.20;;;;;;5055523;28;20097;-48
2021/09/03 02:30:45;;;;;;;11.02;7.05;;;26.30;44.10;;;;;;5055221;28;20029;-51
2021/09/03 02:33:12;;;;;;;9.68;7.57;;;26.30;44.10;;;;;;5073328;28;20106;-50
2021/09/03 02:35:38;;;;;;;7.68;6.88;;;26.30;44.10;;;;;;5054762;28;20024;-52
2021/09/03 02:38:04;;;;;;;9.52;8.02;;;26.30;44.10;;;;;;5055655;28;20426;-53
2021/09/03 02:40:30;;;;;;;9.60;7.35;;;26.30;44.10;;;;;;5073262;28;20501;-51
2021/09/03 02:42:55;;;;;;;10.15;7.50;;;26.30;44.10;;;;;;5054990;28;20027;-48
2021/09/03 02:45:22;;;;;;;8.90;7.25;;;26.30;44.10;;;;;;5055570;28;20457;-49
2021/09/03 02:47:47;;;;;;;8.60;6.93;;;26.30;44.00;;;;;;5072847;28;20028;-51
2021/09/03 02:50:14;;;;;;;8.68;7.03;;;26.30;44.00;;;;;;5073093;28;20031;-50
2021/09/03 02:52:39;;;;;;;7.32;6.55;;;26.30;44.00;;;;;;5054767;28;20069;-53
2021/09/03 02:55:06;;;;;;;8.00;6.70;;;26.30;44.70;;;;;;5072897;28;20427;-49
2021/09/03 02:57:32;;;;;;;9.05;7.15;;;26.30;44.10;;;;;;5054944;28;20477;-51
2021/09/03 02:59:57;;;;;;;7.75;6.55;;;26.30;44.10;;;;;;5072629;28;20055;-51
2021/09/03 03:02:23;;;;;;;8.15;6.60;;;26.30;44.00;;;;;;5072773;28;20024;-53
2021/09/03 03:04:49;;;;;;;9.27;6.82;;;26.30;44.60;;;;;;5072239;28;20025;-49
2021/09/03 03:07:14;;;;;;;8.48;7.05;;;26.30;44.00;;;;;;5072922;28;20584;-54
2021/09/03 03:09:40;;;;;;;9.23;6.70;;;26.30;44.00;;;;;;5071556;28;20043;-51
2021/09/03 03:12:06;;;;;;;7.78;6.38;;;26.30;44.00;;;;;;5071874;28;20051;-47
2021/09/03 03:14:35;;;;;;;6.93;6.22;;;26.30;44.00;;;;;;5072718;28;20035;-50
2021/09/03 03:17:01;;;;;;;7.07;6.05;;;26.30;44.00;;;;;;5071834;28;20033;-52
2021/09/03 03:19:28;;;;;;;7.43;6.25;;;26.30;44.00;;;;;;5054443;28;20033;-54
2021/09/03 03:21:54;;;;;;;7.85;6.15;;;26.30;44.00;;;;;;5071771;28;20025;-53
2021/09/03 03:24:20;;;;;;;8.43;5.97;;;26.30;44.00;;;;;;5071852;28;20131;-49
2021/09/03 03:26:47;;;;;;;8.05;6.47;;;26.30;44.00;;;;;;5053664;28;20464;-49
2021/09/03 03:29:12;;;;;;;7.88;6.05;;;26.30;44.00;;;;;;5053842;28;20028;-50
2021/09/03 03:31:56;;;;;;;7.50;6.10;;;26.30;43.90;;;;;;5053602;28;20023;-49
2021/09/03 03:34:22;;;;;;;7.00;5.95;;;26.30;43.90;;;;;;5071704;28;20024;-51
2021/09/03 03:36:48;;;;;;;6.45;5.47;;;26.30;43.90;;;;;;5071118;28;20098;-48
2021/09/03 03:39:14;;;;;;;7.15;5.47;;;26.30;43.90;;;;;;5071627;28;20469;-51
2021/09/03 03:41:39;;;;;;;5.97;5.32;;;26.30;43.90;;;;;;5071194;28;20020;-52
2021/09/03 03:44:05;;;;;;;7.13;5.13;;;26.30;43.90;;;;;;5071964;28;20021;-49
2021/09/03 03:46:31;;;;;;;8.40;5.72;;;26.30;43.90;;;;;;5053514;28;20028;-50
2021/09/03 03:48:57;;;;;;;8.18;5.88;;;26.30;43.90;;;;;;5070868;28;20100;-51
2021/09/03 03:51:23;;;;;;;9.30;5.75;;;26.30;43.90;;;;;;5071294;28;20067;-50
2021/09/03 03:53:49;;;;;;;7.13;5.85;;;26.20;43.80;;;;;;5071015;28;20036;-54
2021/09/03 03:56:15;;;;;;;6.15;4.97;;;26.20;43.90;;;;;;5071481;28;20024;-53
2021/09/03 03:58:41;;;;;;;7.65;5.57;;;26.20;43.90;;;;;;5070845;28;20054;-51
2021/09/03 04:01:07;;;;;;;7.22;5.70;;;26.30;43.90;;;;;;5053836;28;20108;-56
2021/09/03 04:03:33;;;;;;;7.63;5.55;;;26.20;43.90;;;;;;5053474;28;20541;-51
2021/09/03 04:05:58;;;;;;;6.22;5.35;;;26.30;43.90;;;;;;5070954;28;20126;-50
2021/09/03 04:08:24;;;;;;;6.20;4.90;;;26.20;43.90;;;;;;5071172;28;20465;-52
2021/09/03 04:10:49;;;;;;;5.97;5.22;;;26.20;43.90;;;;;;5070734;28;20501;-52
2021/09/03 04:13:15;;;;;;;7.30;5.40;;;26.20;43.90;;;;;;5071460;28;20462;-53
2021/09/03 04:15:41;;;;;;;7.25;5.10;;;26.20;43.90;;;;;;5071101;28;20028;-50
2021/09/03 04:18:06;;;;;;;8.05;5.40;;;26.30;43.90;;;;;;5052938;28;20024;-52
2021/09/03 04:20:32;;;;;;;6.50;4.95;;;26.20;43.80;;;;;;5071626;28;20031;-53
2021/09/03 04:22:58;;;;;;;6.30;5.05;;;26.30;43.90;;;;;;5070363;28;20239;-49
2021/09/03 04:25:23;;;;;;;6.25;4.95;;;26.20;43.80;;;;;;5071134;28;20068;-52
2021/09/03 04:27:49;;;;;;;6.43;4.72;;;26.30;43.90;;;;;;5052801;28;20381;-51
2021/09/03 04:30:15;;;;;;;4.93;4.28;;;26.30;43.90;;;;;;5071557;28;20028;-51
2021/09/03 04:32:41;;;;;;;5.55;4.78;;;26.30;43.90;;;;;;5052689;28;20461;-53
2021/09/03 04:35:08;;;;;;;5.80;4.90;;;26.30;43.80;;;;;;5071301;28;20024;-54
2021/09/03 04:37:49;;;;;;;5.95;4.63;;;26.30;43.80;;;;;;5053199;28;20120;-50
2021/09/03 04:40:17;;;;;;;6.88;5.13;;;26.20;43.90;;;;;;5053183;28;20533;-47
2021/09/03 04:42:43;;;;;;;5.13;4.20;;;26.30;43.80;;;;;;5070686;28;20079;-53
2021/09/03 04:45:10;;;;;;;6.50;4.72;;;26.30;43.80;;;;;;5071026;28;20142;-53
2021/09/03 04:47:37;;;;;;;6.75;4.53;;;26.30;43.80;;;;;;5052976;28;20123;-52
2021/09/03 04:50:05;;;;;;;5.55;4.70;;;26.30;43.80;;;;;;5053044;28;20078;-53
2021/09/03 04:52:31;;;;;;;6.38;4.50;;;26.20;43.70;;;;;;5070635;28;20024;-53
2021/09/03 04:54:57;;;;;;;5.68;4.25;;;26.20;43.70;;;;;;5052475;28;20377;-53
2021/09/03 04:57:22;;;;;;;6.68;4.78;;;26.20;43.70;;;;;;5070681;28;20024;-50
2021/09/03 04:59:48;;;;;;;5.72;4.30;;;26.30;43.80;;;;;;5070073;28;20024;-51
2021/09/03 05:02:14;;;;;;;6.97;4.72;;;26.20;43.70;;;;;;5070563;28;20473;-51
2021/09/03 05:04:40;;;;;;;7.47;4.63;;;26.20;43.70;;;;;;5070307;28;20591;-54
2021/09/03 05:07:06;;;;;;;10.15;5.15;;;26.20;43.50;;;;;;5052695;28;20036;-50
2021/09/03 05:09:31;;;;;;;6.78;4.55;;;26.20;42.90;;;;;;5070849;28;20103;-53
2021/09/03 05:11:57;;;;;;;9.75;5.10;;;26.10;42.60;;;;;;5070005;28;20297;-48
2021/09/03 05:14:22;;;;;;;11.05;5.10;;;26.00;43.10;;;;;;5070409;28;20377;-49
2021/09/03 05:16:48;;;;;;;8.88;5.03;;;25.90;42.70;;;;;;5052310;28;20477;-50
2021/09/03 05:19:14;;;;;;;8.90;4.72;;;25.80;42.60;;;;;;5052626;28;20028;-49
2021/09/03 05:21:40;;;;;;;7.97;5.55;;;25.80;42.60;;;;;;5070005;28;20033;-53
2021/09/03 05:24:05;;;;;;;8.10;5.53;;;25.70;42.70;;;;;;5070676;28;20513;-54
2021/09/03 05:26:31;;;;;;;13.85;5.88;;;25.60;42.70;;;;;;5070355;28;20466;-52
2021/09/03 05:28:57;;;;;;;9.38;5.63;;;25.50;42.70;;;;;;5070338;28;20032;-50
2021/09/03 05:31:23;;;;;;;9.77;5.53;;;25.40;42.80;;;;;;5070540;28;20423;-51
2021/09/03 05:33:48;;;;;;;10.88;5.70;;;25.30;42.90;;;;;;5069818;28;20031;-52
2021/09/03 05:36:14;;;;;;;14.73;6.18;;;25.30;43.10;;;;;;5073453;28;20032;-50
2021/09/03 05:38:40;;;;;;;12.07;6.05;;;25.20;43.20;;;;;;5073774;28;20056;-50
2021/09/03 05:41:06;;;;;;;9.63;5.65;;;25.20;43.40;;;;;;5074318;28;20053;-54
2021/09/03 05:43:32;;;;;;;13.05;6.38;;;25.10;43.50;;;;;;5056082;28;20025;-49
2021/09/03 05:45:57;;;;;;;10.45;6.43;;;25.10;43.50;;;;;;5055569;28;20429;-51
2021/09/03 05:48:23;;;;;;;11.00;6.15;;;25.00;43.50;;;;;;5056023;28;20056;-52
2021/09/03 05:50:49;;;;;;;9.77;6.30;;;25.00;43.60;;;;;;5073640;28;20023;-54
2021/09/03 05:53:15;;;;;;;12.10;5.72;;;24.90;43.70;;;;;;5073748;28;20461;-55
2021/09/03 05:55:41;;;;;;;11.25;6.00;;;24.90;43.90;;;;;;5073508;28;20031;-54
2021/09/03 05:58:07;;;;;;;11.38;6.78;;;24.90;44.00;;;;;;5073952;28;20449;-51
2021/09/03 06:00:32;;;;;;;9.95;5.85;;;24.90;44.20;;;;;;5055939;28;20043;-52
2021/09/03 06:02:59;;;;;;;16.63;6.70;;;24.80;44.20;;;;;;5073376;28;20383;-53
2021/09/03 06:05:25;;;;;;;9.68;6.55;;;24.80;44.40;;;;;;5073505;28;20036;-52
2021/09/03 06:07:51;;;;;;;12.38;7.20;;;24.80;44.50;;;;;;5073307;28;20032;-53
2021/09/03 06:10:16;;;;;;;19.80;8.20;;;24.80;44.70;;;;;;5055760;28;20032;-48
2021/09/03 06:12:42;;;;;;;19.63;7.47;;;24.80;44.70;;;;;;5055175;28;20465;-55
2021/09/03 06:15:09;;;;;;;17.25;7.47;;;24.80;44.80;;;;;;5073347;28;20033;-52
2021/09/03 06:17:36;;;;;;;18.25;7.55;;;24.80;44.80;;;;;;5055681;28;20032;-52
2021/09/03 06:20:04;;;;;;;18.30;7.55;;;24.80;44.90;;;;;;5055035;28;20024;-54
2021/09/03 06:22:30;;;;;;;16.45;7.30;;;24.80;45.00;;;;;;5055454;28;20033;-51
2021/09/03 06:24:56;;;;;;;16.40;7.40;;;24.80;45.00;;;;;;5073017;28;20048;-56
2021/09/03 06:27:22;;;;;;;18.92;7.43;;;24.80;45.10;;;;;;5072971;28;20033;-51
2021/09/03 06:29:47;;;;;;;16.67;7.78;;;24.80;45.20;;;;;;5072876;28;20021;-53
2021/09/03 06:32:19;;;;;;;16.38;7.47;;;24.80;45.10;;;;;;5072943;28;20519;-54
2021/09/03 06:34:50;;;;;;;19.20;7.93;;;24.90;45.30;;;;;;5072529;28;20077;-52
2021/09/03 06:37:16;;;;;;;20.92;8.18;;;24.90;45.30;;;;;;5072762;28;20500;-52
2021/09/03 06:39:43;;;;;;;18.33;7.68;;;24.90;45.50;;;;;;5072533;28;20082;-53
2021/09/03 06:42:09;;;;;;;21.10;7.55;;;24.90;45.50;;;;;;5054940;28;20031;-53
2021/09/03 06:44:36;;;;;;;27.08;8.48;;;24.90;45.60;;;;;;5072322;28;20123;-53
2021/09/03 06:47:03;;;;;;;30.52;9.38;;;24.90;45.60;;;;;;5053987;28;20068;-53
2021/09/03 06:49:29;;;;;;;33.38;8.90;;;24.90;45.70;;;;;;5072414;28;20412;-52
2021/09/03 06:51:55;;;;;;;171.48;14.52;;;25.00;45.80;;;;;;5054793;28;20032;-36
2021/09/03 06:54:21;;;;;;;68.13;9.32;;;24.80;46.70;;;;;;5072884;28;20060;-61
2021/09/03 06:56:47;;;;;;;171.88;14.45;;;24.40;47.10;;;;;;5054457;28;20440;-63
2021/09/03 06:59:12;;;;;;;459.17;28.98;;;24.20;47.30;;;;;;5054999;28;20473;-62
2021/09/03 07:01:38;;;;;;;526.70;29.88;;;24.10;47.70;;;;;;5054580;28;20054;-57
2021/09/03 07:04:04;;;;;;;198.77;16.30;;;24.00;48.00;;;;;;5037837;28;20130;-55
2021/09/03 07:06:30;;;;;;;189.10;14.30;;;24.00;48.00;;;;;;5054225;28;20039;-59
2021/09/03 07:08:57;;;;;;;227.15;17.23;;;24.00;47.90;;;;;;5072811;28;20056;-59
2021/09/03 07:11:23;;;;;;;192.07;14.35;;;24.10;47.90;;;;;;5072611;28;20028;-47
2021/09/03 07:13:49;;;;;;;127.82;12.50;;;24.10;47.90;;;;;;5071922;28;20017;-52
2021/09/03 07:16:15;;;;;;;108.88;11.98;;;24.10;47.90;;;;;;5072173;28;20085;-53
2021/09/03 07:18:40;;;;;;;142.13;12.35;;;24.20;47.90;;;;;;5053555;28;20028;-51
2021/09/03 07:21:06;;;;;;;146.27;13.95;;;24.20;47.80;;;;;;5071981;28;20108;-51
2021/09/03 07:23:32;;;;;;;215.13;16.88;;;24.20;47.80;;;;;;5071476;28;20048;-49
2021/09/03 07:26:00;;;;;;;105.50;11.55;;;24.30;47.80;;;;;;5072633;28;20028;-55
2021/09/03 07:28:26;;;;;;;90.05;10.82;;;24.30;47.80;;;;;;5071615;28;20036;-56
2021/09/03 07:30:51;;;;;;;58.25;9.32;;;24.40;47.80;;;;;;5072153;28;20032;-54
2021/09/03 07:33:17;;;;;;;46.00;8.85;;;24.40;47.70;;;;;;5072050;28;20025;-57
2021/09/03 07:35:45;;;;;;;46.97;8.80;;;24.40;47.60;;;;;;5071354;28;20028;-56
2021/09/03 07:38:11;;;;;;;33.50;8.80;;;24.50;47.70;;;;;;5071761;28;20036;-53
2021/09/03 07:40:37;;;;;;;47.15;9.57;;;24.50;47.50;;;;;;5053434;28;20028;-57
2021/09/03 07:43:07;;;;;;;32.97;8.20;;;24.50;47.40;;;;;;5071987;28;20028;-53
2021/09/03 07:45:37;;;;;;;134.10;13.88;;;24.50;47.40;;;;;;5052923;28;20040;-61
2021/09/03 07:48:03;;;;;;;43.78;9.02;;;24.50;47.80;;;;;;5053886;28;20477;-51
2021/09/03 07:50:29;;;;;;;35.15;9.10;;;24.60;48.50;;;;;;5071317;28;20346;-56
2021/09/03 07:52:55;;;;;;;23.15;8.60;;;24.60;47.90;;;;;;5053437;28;20025;-59
2021/09/03 07:55:21;;;;;;;30.40;8.18;;;24.60;47.70;;;;;;5053572;28;20036;-57
2021/09/03 07:57:47;;;;;;;67.47;9.45;;;24.60;47.50;;;;;;5053074;28;20067;-36
2021/09/03 08:00:13;;;;;;;43.30;8.63;;;24.60;48.30;;;;;;5071335;28;20048;-36
2021/09/03 08:02:39;;;;;;;99.00;10.20;;;24.70;47.60;;;;;;5052845;28;20060;-36
2021/09/03 08:05:05;;;;;;;84.25;10.50;;;24.70;47.80;;;;;;5053345;28;20063;-36
2021/09/03 08:07:32;;;;;;;57.05;10.02;;;24.70;47.70;;;;;;5070776;28;20072;-37
2021/09/03 08:09:58;;;;;;;34.28;9.73;;;24.70;47.50;;;;;;5071168;28;20444;-36
2021/09/03 08:12:24;;;;;;;37.42;9.25;;;24.70;47.50;;;;;;5053403;28;20517;-36
2021/09/03 08:14:50;;;;;;;50.67;9.43;;;24.80;47.60;;;;;;5070370;28;20112;-36
2021/09/03 08:17:16;;;;;;;39.88;9.45;;;24.80;49.50;;;;;;5053161;28;20035;-38
2021/09/03 08:19:42;;;;;;;29.25;8.13;;;24.80;51.00;;;;;;5070512;28;20459;-37
2021/09/03 08:22:08;;;;;;;32.45;8.32;;;24.80;51.50;;;;;;5052620;28;20081;-37
2021/09/03 08:24:34;;;;;;;31.10;8.68;;;24.90;52.50;;;;;;5035479;28;20060;-37
2021/09/03 08:27:00;;;;;;;25.75;9.02;;;24.90;53.10;;;;;;5050420;28;20067;-38
2021/09/03 08:29:27;;;;;;;24.25;9.05;;;24.90;53.30;;;;;;5032730;28;20045;-41
2021/09/03 08:31:53;;;;;;;26.45;9.15;;;24.90;53.70;;;;;;5050875;28;20476;-38
2021/09/03 08:34:18;;;;;;;33.25;8.43;;;25.00;53.90;;;;;;5050511;28;20390;-38
2021/09/03 08:36:44;;;;;;;30.60;8.63;;;25.00;54.30;;;;;;5049819;28;20028;-37
2021/09/03 08:39:10;;;;;;;24.88;8.02;;;24.90;53.40;;;;;;5045204;28;20072;-39
2021/09/03 08:41:39;;;;;;;30.17;8.23;;;24.90;52.40;;;;;;5047927;28;20138;-37
2021/09/03 08:44:05;;;;;;;22.83;8.68;;;24.90;53.20;;;;;;5029300;28;20049;-43
2021/09/03 08:46:33;;;;;;;24.02;7.82;;;24.90;52.40;;;;;;5028213;28;20066;-48
2021/09/03 08:49:03;;;;;;;29.33;8.50;;;24.90;52.20;;;;;;5046858;28;20111;-49
2021/09/03 08:51:30;;;;;;;20.92;8.13;;;24.90;52.30;;;;;;5029431;28;20040;-59
2021/09/03 08:53:56;;;;;;;21.65;7.85;;;25.00;52.30;;;;;;5026901;28;20036;-52
2021/09/03 08:56:21;;;;;;;44.60;8.57;;;25.00;52.00;;;;;;5029592;28;20373;-54
2021/09/03 08:58:51;;;;;;;28.48;7.10;;;25.10;51.90;;;;;;5047106;28;20112;-58
2021/09/03 09:01:18;;;;;;;26.52;8.85;;;25.30;51.30;;;;;;5046353;28;20057;-58
2021/09/03 09:03:47;;;;;;;23.50;7.70;;;25.60;50.10;;;;;;5046581;28;20029;-56
2021/09/03 09:06:23;;;;;;;31.38;12.85;;;25.90;48.40;;;;;;5046377;28;20025;-49
2021/09/03 09:08:57;;;;;;;33.50;9.50;;;26.00;47.20;;;;;;5028669;28;20141;-51
2021/09/03 09:11:28;;;;;;;32.80;9.13;;;26.10;46.90;;;;;;5050953;28;20068;-49
2021/09/03 09:13:58;;;;;;;44.15;9.68;;;25.90;47.30;;;;;;5050191;28;20112;-48
2021/09/03 09:16:26;;;;;;;46.47;11.63;;;25.80;47.30;;;;;;5033231;28;20029;-58
2021/09/03 09:18:54;;;;;;;49.70;10.55;;;25.70;47.60;;;;;;5031499;28;20377;-54
2021/09/03 09:21:37;;;;;;;58.70;8.77;;;25.70;47.60;;;;;;5049529;28;20036;-53
2021/09/03 09:24:14;;;;;;;42.55;9.00;;;25.70;47.70;;;;;;5063194;28;20044;-46
2021/09/03 09:26:56;;;;;;;49.65;9.25;;;25.70;47.40;;;;;;5066280;28;20441;-50
2021/09/03 09:29:22;;;;;;;26.85;7.78;;;25.60;47.50;;;;;;5071412;28;20056;-54
2021/09/03 09:31:56;;;;;;;56.75;7.25;;;25.60;47.70;;;;;;5073644;28;20524;-57
2021/09/03 09:34:23;;;;;;;40.92;7.05;;;25.60;48.10;;;;;;5050043;28;20101;-42
2021/09/03 09:36:52;;;;;;;39.00;6.95;;;25.60;48.00;;;;;;5071569;28;20036;-45
2021/09/03 09:39:20;;;;;;;45.40;7.25;;;25.50;48.00;;;;;;5073173;28;20024;-41
2021/09/03 09:41:55;;;;;;;44.42;7.60;;;25.50;48.10;;;;;;5073078;28;20021;-43
2021/09/03 09:44:28;;;;;;;32.67;7.53;;;25.50;48.10;;;;;;5056216;28;20027;-45
2021/09/03 09:47:12;;;;;;;34.83;6.35;;;25.50;47.70;;;;;;5072827;28;20032;-40
2021/09/03 09:49:39;;;;;;;29.60;6.68;;;25.40;47.50;;;;;;5054163;28;20104;-45
2021/09/03 09:52:06;;;;;;;27.60;6.57;;;25.40;47.70;;;;;;5072624;28;20024;-40
2021/09/03 09:54:33;;;;;;;17.75;6.38;;;25.40;47.60;;;;;;5072102;28;20029;-42
2021/09/03 09:57:00;;;;;;;25.42;6.25;;;25.40;47.80;;;;;;5073160;28;20070;-42
2021/09/03 09:59:29;;;;;;;28.73;7.32;;;25.40;47.80;;;;;;5073379;28;20028;-43
2021/09/03 10:01:57;;;;;;;21.25;6.70;;;25.30;47.80;;;;;;5054700;28;20032;-43
2021/09/03 10:04:28;;;;;;;25.30;6.25;;;25.30;47.80;;;;;;5073166;28;20017;-44
2021/09/03 10:06:57;;;;;;;19.63;5.90;;;25.30;47.90;;;;;;5071974;28;20025;-40
2021/09/03 10:09:25;;;;;;;27.85;6.75;;;25.30;47.90;;;;;;5054005;28;20395;-41
2021/09/03 10:11:53;;;;;;;24.48;6.53;;;25.30;47.80;;;;;;5072132;28;20448;-40
2021/09/03 10:14:28;;;;;;;27.98;6.50;;;25.30;47.80;;;;;;5073064;28;20028;-39
2021/09/03 10:16:55;;;;;;;26.92;6.35;;;25.30;47.80;;;;;;5072431;28;20036;-42
2021/09/03 10:19:27;;;;;;;17.95;6.10;;;25.30;47.80;;;;;;5054485;28;20465;-39
2021/09/03 10:22:02;;;;;;;25.02;6.70;;;25.30;47.80;;;;;;5070847;28;20415;-41
2021/09/03 10:24:29;;;;;;;35.33;7.43;;;25.30;47.70;;;;;;5054721;28;20052;-46
2021/09/03 10:26:57;;;;;;;28.40;7.25;;;25.30;47.70;;;;;;5053872;28;20036;-40
2021/09/03 10:29:24;;;;;;;35.95;7.25;;;25.30;47.80;;;;;;5054831;28;20430;-39
2021/09/03 10:32:08;;;;;;;33.58;6.85;;;25.30;47.70;;;;;;5072635;28;20304;-39
2021/09/03 10:37:19;;;;;;;30.88;7.55;;;25.30;47.60;;;;;;5072739;28;20037;-39
2021/09/03 10:42:57;;;;;;;32.00;7.25;;;25.30;47.50;;;;;;5072034;28;20097;-39
2021/09/03 10:45:39;;;;;;;36.65;6.55;;;25.40;47.60;;;;;;5054232;28;20082;-40
2021/09/03 10:48:12;;;;;;;26.17;6.85;;;25.40;47.60;;;;;;5072590;28;20051;-39
2021/09/03 10:50:41;;;;;;;26.90;6.55;;;25.30;47.50;;;;;;5071718;28;20029;-40
2021/09/03 10:53:10;;;;;;;22.42;6.13;;;25.40;47.30;;;;;;5071983;28;20032;-40
2021/09/03 10:56:03;;;;;;;21.45;5.93;;;25.40;47.20;;;;;;5053376;28;20028;-40
2021/09/03 10:58:51;;;;;;;20.23;5.82;;;25.40;47.10;;;;;;5054219;28;20477;-40
2021/09/03 11:01:26;;;;;;;25.40;5.97;;;25.40;46.90;;;;;;5053753;28;20165;-40
2021/09/03 11:03:56;;;;;;;16.60;5.50;;;25.40;46.80;;;;;;5071057;28;20023;-40
2021/09/03 11:06:24;;;;;;;14.80;5.38;;;25.40;46.70;;;;;;5071697;28;20024;-40
2021/09/03 11:08:56;;;;;;;19.15;6.15;;;25.40;46.60;;;;;;5071364;28;20239;-39
2021/09/03 11:11:25;;;;;;;10.43;5.63;;;25.40;46.60;;;;;;5053725;28;20384;-41
2021/09/03 11:13:59;;;;;;;18.73;5.38;;;25.40;46.40;;;;;;5070573;28;20024;-44
2021/09/03 11:16:38;;;;;;;21.63;5.43;;;25.40;46.20;;;;;;5071387;28;20112;-40
2021/09/03 11:19:14;;;;;;;10.30;5.32;;;25.40;46.10;;;;;;5071302;28;20029;-43
2021/09/03 11:21:54;;;;;;;12.32;5.18;;;25.40;46.00;;;;;;5052844;28;20260;-42
2021/09/03 11:24:23;;;;;;;17.35;5.18;;;25.40;46.00;;;;;;5052862;28;20078;-43
2021/09/03 11:26:51;;;;;;;17.83;5.05;;;25.40;45.90;;;;;;5052773;28;20115;-41
2021/09/03 11:29:46;;;;;;;14.65;5.03;;;25.40;45.80;;;;;;5053099;28;20171;-42
2021/09/03 11:32:18;;;;;;;12.43;5.47;;;25.50;45.90;;;;;;5067215;28;20114;-44
2021/09/03 11:34:57;;;;;;;13.10;5.00;;;25.50;45.80;;;;;;5071582;28;20025;-41
2021/09/03 11:37:27;;;;;;;12.77;5.18;;;25.40;45.80;;;;;;5052901;28;20036;-41
2021/09/03 11:40:01;;;;;;;14.23;4.85;;;25.50;45.90;;;;;;5052751;28;20146;-41
2021/09/03 11:42:28;;;;;;;;;;;25.50;45.90;;;;;;5036703;28;20033;-38
2021/09/03 11:45:01;;;;;;;22.27;5.43;;;25.50;45.80;;;;;;5069968;28;20272;-40
2021/09/03 11:47:38;;;;;;;15.15;5.10;;;25.50;45.80;;;;;;5052518;28;20546;-41
2021/09/03 11:50:15;;;;;;;21.08;5.97;;;25.50;45.80;;;;;;5053141;28;20112;-43
2021/09/03 11:52:42;;;;;;;19.95;5.60;;;25.60;45.90;;;;;;5070232;28;20024;-41
2021/09/03 11:55:14;;;;;;;45.40;6.80;;;25.60;45.80;;;;;;5070997;28;20028;-40
2021/09/03 11:58:03;;;;;;;40.55;6.90;;;25.60;45.70;;;;;;5070424;28;20051;-42
2021/09/03 12:00:40;;;;;;;43.90;6.25;;;25.60;45.60;;;;;;5052506;28;20025;-40
2021/09/03 12:03:09;;;;;;;37.92;6.45;;;25.60;45.60;;;;;;5052564;28;20024;-43
2021/09/03 12:05:37;;;;;;;35.53;6.72;;;25.60;45.60;;;;;;5070849;28;20543;-40
2021/09/03 12:08:02;;;;;;;28.17;5.38;;;25.60;45.50;;;;;;5052961;28;20159;-39
2021/09/03 12:10:37;;;;;;;27.50;5.43;;;25.60;45.50;;;;;;5070133;28;20462;-39
2021/09/03 12:13:32;;;;;;;23.05;5.82;;;25.60;45.40;;;;;;5070031;28;20020;-40
2021/09/03 12:16:03;;;;;;;19.17;5.65;;;25.70;45.40;;;;;;5044299;28;20151;-39
2021/09/03 12:18:35;;;;;;;16.35;5.50;;;25.70;45.40;;;;;;5051100;28;20024;-39
2021/09/03 12:21:04;;;;;;;17.08;5.63;;;25.70;45.30;;;;;;5050658;28;20102;-39
2021/09/03 12:23:33;;;;;;;18.98;5.93;;;25.80;45.50;;;;;;5069201;28;20570;-44
2021/09/03 12:26:15;;;;;;;17.58;5.72;;;25.70;45.30;;;;;;5051465;28;20533;-40
2021/09/03 12:28:47;;;;;;;14.60;5.00;;;25.80;45.40;;;;;;5065567;28;20036;-41
2021/09/03 12:31:28;;;;;;;26.45;5.80;;;25.70;45.30;;;;;;5034227;28;20077;-43
2021/09/03 12:34:02;;;;;;;21.98;5.20;;;25.70;45.40;;;;;;5050848;28;20025;-47
2021/09/03 12:36:33;;;;;;;16.20;5.35;;;25.80;45.40;;;;;;5051377;28;20032;-43
2021/09/03 12:39:08;;;;;;;12.45;4.90;;;25.80;45.40;;;;;;5069040;28;20025;-42
2021/09/03 12:41:37;;;;;;;9.02;5.10;;;25.80;45.40;;;;;;5068472;28;20033;-46
2021/09/03 12:44:09;;;;;;;131.98;8.88;;;25.80;45.40;;;;;;5050658;28;20043;-48
2021/09/03 12:46:37;;;;;;;21.15;5.43;;;25.90;45.60;;;;;;5063679;28;20033;-58
2021/09/03 12:49:12;;;;;;;27.60;5.70;;;25.80;45.40;;;;;;5047225;28;20028;-63
2021/09/03 12:51:41;;;;;;;17.58;5.95;;;25.80;45.50;;;;;;5067057;28;20035;-54